Time;durP1;ratioP1;P1;durP2;ratioP2;P2;SDS_P1;SDS_P2;PMS_P1;PMS_P2;Temp;Humidity;BMP_temperature;BMP_pressure;BME280_temperature;BME280_humidity;BME280_pressure;Samples;Min_cycle;Max_cycle;Signal;HPM_P1;HPM_P2
2022/08/05 00:01:53;;;;;;;7.03;3.45;;;;;;;21.02;81.03;100708.94;4881879;29;20047;-84
2022/08/05 00:04:20;;;;;;;7.35;2.80;;;;;;;20.93;81.41;100704.09;4892790;29;20056;-85
2022/08/05 00:06:47;;;;;;;7.45;3.53;;;;;;;20.92;82.22;100729.81;4879416;29;20071;-85
2022/08/05 00:09:14;;;;;;;10.15;4.13;;;;;;;20.89;83.22;100727.34;4862029;29;20074;-85
2022/08/05 00:11:42;;;;;;;8.95;3.47;;;;;;;20.79;84.21;100726.97;4862854;29;20048;-85
2022/08/05 00:14:09;;;;;;;7.43;4.47;;;;;;;20.71;85.07;100726.47;4861798;29;20079;-85
2022/08/05 00:16:35;;;;;;;10.73;5.60;;;;;;;20.60;86.18;100726.97;4862965;29;20068;-86
2022/08/05 00:19:02;;;;;;;7.50;5.25;;;;;;;20.56;86.33;100724.53;4862788;29;20357;-85
2022/08/05 00:21:32;;;;;;;9.70;7.03;;;;;;;20.52;87.22;100745.13;4864116;29;20164;-86
2022/08/05 00:24:00;;;;;;;10.55;7.00;;;;;;;20.44;88.11;100742.84;4865612;29;20395;-84
2022/08/05 00:26:27;;;;;;;15.82;8.38;;;;;;;20.37;89.37;100741.41;4877963;29;20053;-84
2022/08/05 00:28:53;;;;;;;14.13;7.68;;;;;;;20.32;89.20;100746.09;4866971;29;20057;-84
2022/08/05 00:31:20;;;;;;;13.65;8.90;;;;;;;20.28;90.09;100745.34;4882104;29;20057;-85
2022/08/05 00:33:47;;;;;;;15.93;8.57;;;;;;;20.25;90.83;100748.19;4859970;29;20068;-85
2022/08/05 00:36:14;;;;;;;17.17;9.60;;;;;;;20.18;91.96;100746.75;4876946;29;20084;-84
2022/08/05 00:38:40;;;;;;;16.38;8.98;;;;;;;20.12;91.99;100745.25;4891766;29;20293;-84
2022/08/05 00:41:07;;;;;;;16.35;9.63;;;;;;;20.11;92.41;100747.97;4877613;29;20230;-84
2022/08/05 00:43:38;;;;;;;19.35;9.43;;;;;;;20.07;92.23;100746.41;4877623;29;20048;-84
2022/08/05 00:46:05;;;;;;;17.52;8.63;;;;;;;20.03;92.85;100740.38;4861378;29;20151;-84
2022/08/05 00:48:31;;;;;;;16.92;9.05;;;;;;;20.03;92.96;100729.72;4867393;29;20064;-83
2022/08/05 00:50:58;;;;;;;16.25;8.57;;;;;;;20.06;92.68;100737.56;4876179;29;20056;-83
2022/08/05 00:53:25;;;;;;;14.68;8.90;;;;;;;20.11;92.07;100738.19;4874747;29;20053;-84
2022/08/05 00:55:52;;;;;;;17.85;9.20;;;;;;;20.14;92.06;100723.91;4875869;29;20047;-84
2022/08/05 00:58:18;;;;;;;13.02;8.88;;;;;;;20.14;91.96;100729.22;4886279;29;20061;-85
2022/08/05 01:00:48;;;;;;;18.95;9.32;;;;;;;20.12;92.54;100737.25;4883454;29;20104;-84
2022/08/05 01:03:15;;;;;;;15.50;9.35;;;;;;;20.08;92.83;100721.56;4865156;29;20075;-85
2022/08/05 01:05:41;;;;;;;19.00;10.35;;;;;;;20.04;93.46;100720.84;4880835;29;20132;-83
2022/08/05 01:08:08;;;;;;;18.48;9.00;;;;;;;19.98;93.36;100719.31;4864932;29;20547;-85
2022/08/05 01:10:54;;;;;;;15.77;9.77;;;;;;;19.96;94.11;100718.53;4879283;29;20047;-85
2022/08/05 01:13:35;;;;;;;15.50;9.13;;;;;;;19.91;93.65;100717.91;4888832;29;21059;-82
2022/08/05 01:16:07;;;;;;;19.85;9.10;;;;;;;19.86;93.64;100705.78;4865644;29;20056;-84
2022/08/05 01:18:41;;;;;;;16.98;9.57;;;;;;;19.80;94.26;100717.50;4865431;29;20056;-84
2022/08/05 01:21:29;;;;;;;17.30;9.43;;;;;;;19.72;95.35;100715.19;4862142;29;20052;-84
2022/08/05 01:24:19;;;;;;;16.05;9.38;;;;;;;19.61;95.51;100726.31;4875903;29;20083;-84
2022/08/05 01:27:12;;;;;;;16.50;8.77;;;;;;;19.48;97.03;100727.81;4871412;29;20045;-85
2022/08/05 01:29:47;;;;;;;16.88;9.23;;;;;;;19.39;97.12;100742.34;4893806;29;20108;-85
2022/08/05 01:32:21;;;;;;;17.13;8.82;;;;;;;19.36;97.37;100742.50;4877619;29;20059;-85
2022/08/05 01:35:03;;;;;;;14.52;8.23;;;;;;;19.34;97.40;100739.88;4887837;29;20139;-86
2022/08/05 01:37:53;;;;;;;18.60;9.48;;;;;;;19.36;97.42;100725.69;4859509;29;20063;-86
2022/08/05 01:40:25;;;;;;;12.27;7.63;;;;;;;19.39;96.52;100730.88;4862609;29;20040;-85
2022/08/05 01:42:52;;;;;;;17.50;9.00;;;;;;;19.41;96.40;100726.34;4877073;29;20058;-84
2022/08/05 01:45:20;;;;;;;18.77;9.05;;;;;;;19.45;95.75;100734.13;4878302;29;20049;-86
2022/08/05 01:47:50;;;;;;;15.50;8.75;;;;;;;19.47;96.08;100737.56;4896137;29;20056;-85
2022/08/05 01:50:30;;;;;;;18.73;11.63;;;;;;;19.49;96.28;100745.47;4876421;29;20063;-83
2022/08/05 01:53:16;;;;;;;14.38;7.47;;;;;;;19.50;96.43;100755.13;4854729;29;20054;-84
2022/08/05 01:55:45;;;;;;;13.95;8.63;;;;;;;19.51;95.79;100738.28;4873982;29;20044;-84
2022/08/05 01:58:14;;;;;;;12.95;7.47;;;;;;;19.54;95.27;100713.38;4852492;29;20514;-85
2022/08/05 02:00:45;;;;;;;18.88;8.23;;;;;;;19.56;95.67;100714.19;4843513;29;20056;-85
2022/08/05 02:03:27;;;;;;;17.13;7.82;;;;;;;19.59;95.21;100700.75;4859984;29;20059;-86
2022/08/05 02:05:55;;;;;;;16.25;9.20;;;;;;;19.57;96.65;100679.59;4852645;29;20053;-85
2022/08/05 02:08:22;;;;;;;18.48;9.38;;;;;;;19.53;96.96;100663.88;4840041;29;20053;-84
2022/08/05 02:10:54;;;;;;;18.95;8.43;;;;;;;19.48;97.01;100688.00;4840285;29;20052;-85
2022/08/05 02:13:29;;;;;;;10.82;9.00;;;;;;;19.49;97.25;100703.00;4867387;29;20041;-83
2022/08/05 02:16:32;;;;;;;13.73;8.13;;;;;;;19.49;97.33;100718.94;4880670;29;20497;-85
2022/08/05 02:19:07;;;;;;;15.02;7.90;;;;;;;19.44;97.03;100715.63;4852156;29;20064;-84
2022/08/05 02:21:44;;;;;;;17.30;8.65;;;;;;;19.43;98.04;100716.53;4864086;29;20071;-83
2022/08/05 02:24:19;;;;;;;14.82;8.55;;;;;;;19.37;98.50;100692.91;4860027;29;20076;-86
2022/08/05 02:26:51;;;;;;;18.20;8.95;;;;;;;19.31;98.58;100663.06;4862016;29;20056;-83
2022/08/05 02:29:23;;;;;;;19.95;10.20;;;;;;;19.27;100.00;100639.41;4861552;29;20091;-85
2022/08/05 02:31:54;;;;;;;14.00;9.60;;;;;;;19.27;100.00;100624.31;4850927;29;20165;-84
2022/08/05 02:34:21;;;;;;;20.45;9.40;;;;;;;19.20;100.00;100622.03;4862703;29;20053;-84
2022/08/05 02:36:54;;;;;;;17.65;8.13;;;;;;;19.08;100.00;100623.44;4862626;29;20060;-85
2022/08/05 02:39:23;;;;;;;18.30;9.30;;;;;;;19.00;100.00;100623.78;4853568;29;20072;-85
2022/08/05 02:41:52;;;;;;;15.27;8.98;;;;;;;18.97;100.00;100650.47;4850031;29;20132;-85
2022/08/05 02:44:21;;;;;;;11.75;7.70;;;;;;;18.95;100.00;100661.13;4877660;29;20054;-87
2022/08/05 02:46:52;;;;;;;18.40;10.48;;;;;;;18.89;100.00;100669.34;4842860;29;20064;-86
2022/08/05 02:49:19;;;;;;;21.13;10.18;;;;;;;18.68;100.00;100673.75;4862785;29;20053;-86
2022/08/05 02:51:47;;;;;;;22.17;11.27;;;;;;;18.38;100.00;100667.94;4848220;29;20041;-85
2022/08/05 02:54:15;;;;;;;22.52;11.68;;;;;;;18.16;100.00;100640.56;4863222;29;20057;-86
2022/08/05 02:56:44;;;;;;;22.25;11.75;;;;;;;18.05;100.00;100610.97;4862601;29;20181;-85
2022/08/05 02:59:13;;;;;;;20.25;12.23;;;;;;;17.97;100.00;100615.72;4868783;29;20061;-84
2022/08/05 03:01:41;;;;;;;18.00;11.57;;;;;;;17.93;100.00;100608.84;4874451;29;20056;-85
2022/08/05 03:04:13;;;;;;;18.70;11.75;;;;;;;17.86;100.00;100597.59;4848990;29;20109;-85
2022/08/05 03:06:42;;;;;;;21.85;11.60;;;;;;;17.89;100.00;100594.81;4848159;29;20375;-86
2022/08/05 03:09:13;;;;;;;18.00;11.40;;;;;;;17.94;100.00;100594.66;4866587;29;20052;-83
2022/08/05 03:11:43;;;;;;;17.05;11.13;;;;;;;18.00;100.00;100599.72;4864032;29;20048;-84
2022/08/05 03:14:11;;;;;;;16.60;9.13;;;;;;;18.13;100.00;100615.97;4880771;29;20075;-86
2022/08/05 03:16:38;;;;;;;16.92;9.35;;;;;;;18.15;100.00;100620.28;4860083;29;20419;-85
2022/08/05 03:19:07;;;;;;;9.65;7.60;;;;;;;18.22;100.00;100626.19;4847554;29;20117;-86
2022/08/05 03:21:34;;;;;;;16.48;9.30;;;;;;;18.29;100.00;100642.69;4852691;29;20113;-83
2022/08/05 03:24:01;;;;;;;18.05;9.68;;;;;;;18.30;100.00;100668.25;4858757;29;20077;-85
2022/08/05 03:26:28;;;;;;;15.68;8.75;;;;;;;18.29;100.00;100695.69;4866900;29;20057;-84
2022/08/05 03:28:55;;;;;;;15.38;8.73;;;;;;;18.29;100.00;100704.50;4852861;29;20099;-84
2022/08/05 03:31:23;;;;;;;19.52;10.77;;;;;;;18.29;100.00;100712.47;4882607;29;20041;-84
2022/08/05 03:33:50;;;;;;;19.33;10.60;;;;;;;18.27;100.00;100722.25;4848292;29;20060;-84
2022/08/05 03:36:17;;;;;;;23.38;10.23;;;;;;;18.28;100.00;100721.31;4851290;29;20057;-84
2022/08/05 03:38:44;;;;;;;18.95;11.73;;;;;;;18.33;100.00;100713.19;4857345;29;20048;-84
2022/08/05 03:41:11;;;;;;;20.58;11.32;;;;;;;18.30;100.00;100700.94;4869283;29;20061;-84
2022/08/05 03:43:38;;;;;;;24.10;11.50;;;;;;;18.30;100.00;100705.34;4887653;29;20044;-85
2022/08/05 03:46:05;;;;;;;17.63;10.98;;;;;;;18.27;100.00;100716.09;4869897;29;20096;-85
2022/08/05 03:48:33;;;;;;;21.73;11.75;;;;;;;18.26;100.00;100709.06;4887621;29;20064;-85
2022/08/05 03:51:26;;;;;;;14.05;9.55;;;;;;;18.26;100.00;100695.81;4863140;29;20070;-85
2022/08/05 03:54:18;;;;;;;25.20;12.43;;;;;;;18.28;100.00;100692.19;4871751;29;20045;-85
2022/08/05 03:56:49;;;;;;;19.92;10.10;;;;;;;18.28;100.00;100683.38;4855261;29;20446;-84
2022/08/05 03:59:33;;;;;;;20.73;11.48;;;;;;;18.26;100.00;100680.75;4868435;29;20059;-85
2022/08/05 04:02:04;;;;;;;24.08;10.85;;;;;;;18.23;100.00;100680.91;4868223;29;20060;-84
2022/08/05 04:04:32;;;;;;;13.57;9.18;;;;;;;18.25;100.00;100678.19;4848444;29;20061;-85
2022/08/05 04:07:00;;;;;;;17.23;9.90;;;;;;;18.27;100.00;100679.84;4880414;29;20073;-84
2022/08/05 04:09:29;;;;;;;16.33;10.32;;;;;;;18.27;100.00;100676.34;4866616;29;20049;-84
2022/08/05 04:11:56;;;;;;;18.65;12.35;;;;;;;18.27;100.00;100687.78;4879440;29;20033;-84
2022/08/05 04:14:25;;;;;;;16.95;10.43;;;;;;;18.28;100.00;100692.19;4864931;29;20049;-86
2022/08/05 04:16:53;;;;;;;21.58;11.68;;;;;;;18.28;100.00;100694.81;4865417;29;20461;-85
2022/08/05 04:19:23;;;;;;;20.30;12.40;;;;;;;18.30;100.00;100708.88;4863564;29;20041;-83
2022/08/05 04:21:50;;;;;;;21.02;11.57;;;;;;;18.34;100.00;100707.84;4846817;29;20045;-84
2022/08/05 04:24:20;;;;;;;18.10;12.35;;;;;;;18.40;100.00;100712.00;4848858;29;20060;-84
2022/08/05 04:26:52;;;;;;;23.38;11.88;;;;;;;18.43;100.00;100709.22;4865753;29;20049;-85
2022/08/05 04:29:18;;;;;;;19.98;11.75;;;;;;;18.45;100.00;100707.38;4843444;29;20060;-84
2022/08/05 04:31:45;;;;;;;19.63;12.55;;;;;;;18.48;100.00;100703.75;4862170;29;20041;-84
2022/08/05 04:34:12;;;;;;;18.58;10.48;;;;;;;18.48;100.00;100709.91;4843372;29;20069;-85
2022/08/05 04:36:43;;;;;;;18.13;10.73;;;;;;;18.52;100.00;100719.47;4865673;29;20068;-85
2022/08/05 04:39:12;;;;;;;21.63;12.85;;;;;;;18.54;100.00;100727.38;4850957;29;20140;-84
2022/08/05 04:41:39;;;;;;;20.17;10.20;;;;;;;18.55;100.00;100715.84;4863370;29;20096;-85
2022/08/05 04:44:06;;;;;;;17.50;10.40;;;;;;;18.59;100.00;100716.56;4867312;29;20061;-85
2022/08/05 04:46:36;;;;;;;23.13;12.30;;;;;;;18.61;100.00;100717.38;4865007;29;20137;-82
2022/08/05 04:49:07;;;;;;;21.55;11.15;;;;;;;18.61;100.00;100725.31;4846628;29;20044;-85
2022/08/05 04:51:34;;;;;;;23.05;12.57;;;;;;;18.61;100.00;100720.88;4863352;29;20065;-85
2022/08/05 04:54:04;;;;;;;18.23;10.73;;;;;;;18.64;100.00;100723.41;4860444;29;20600;-85
2022/08/05 04:56:30;;;;;;;15.85;10.65;;;;;;;18.67;100.00;100736.53;4847875;29;20052;-85
2022/08/05 04:58:57;;;;;;;18.65;10.40;;;;;;;18.72;100.00;100733.69;4868238;29;20050;-84
2022/08/05 05:01:27;;;;;;;21.80;13.13;;;;;;;18.76;100.00;100730.00;4851049;29;20144;-84
2022/08/05 05:03:53;;;;;;;14.25;9.38;;;;;;;18.82;100.00;100728.84;4850658;29;20436;-84
2022/08/05 05:06:20;;;;;;;14.35;9.93;;;;;;;18.89;100.00;100719.75;4870854;29;20040;-85
2022/08/05 05:08:47;;;;;;;17.00;9.10;;;;;;;18.96;100.00;100723.00;4884395;29;20693;-84
2022/08/05 05:11:14;;;;;;;15.52;10.13;;;;;;;19.03;100.00;100713.84;4883014;29;20048;-85
2022/08/05 05:13:41;;;;;;;11.63;8.38;;;;;;;19.11;100.00;100706.44;4864458;29;20048;-85
2022/08/05 05:16:08;;;;;;;13.50;8.20;;;;;;;19.16;100.00;100701.78;4856728;29;20057;-84
2022/08/05 05:18:35;;;;;;;13.98;8.48;;;;;;;19.13;100.00;100704.53;4870542;29;20049;-84
2022/08/05 05:21:04;;;;;;;10.85;7.30;;;;;;;19.14;100.00;100703.63;4854089;29;20138;-85
2022/08/05 05:23:34;;;;;;;10.48;6.75;;;;;;;19.22;100.00;100702.44;4852627;29;20048;-85
2022/08/05 05:26:01;;;;;;;12.52;7.78;;;;;;;19.30;100.00;100702.94;4850034;29;20060;-85
2022/08/05 05:28:28;;;;;;;12.60;8.05;;;;;;;19.36;100.00;100710.66;4850677;29;20425;-84
2022/08/05 05:30:56;;;;;;;16.88;7.82;;;;;;;19.44;100.00;100718.25;4883176;29;20140;-87
2022/08/05 05:33:24;;;;;;;10.25;7.93;;;;;;;19.49;100.00;100724.22;4870018;29;20061;-84
2022/08/05 05:35:57;;;;;;;8.98;6.97;;;;;;;19.50;100.00;100729.47;4878408;29;20060;-84
2022/08/05 05:38:23;;;;;;;10.57;7.57;;;;;;;19.50;100.00;100742.75;4882782;29;20468;-85
2022/08/05 05:40:50;;;;;;;9.55;7.15;;;;;;;19.48;100.00;100743.75;4870590;29;20037;-85
2022/08/05 05:43:21;;;;;;;9.88;7.45;;;;;;;19.42;100.00;100733.38;4867256;29;20051;-85
2022/08/05 05:45:48;;;;;;;11.48;7.97;;;;;;;19.39;99.52;100733.53;4851327;29;20053;-84
2022/08/05 05:48:17;;;;;;;12.70;8.13;;;;;;;19.34;99.37;100737.22;4851580;29;20048;-84
2022/08/05 05:50:44;;;;;;;12.38;7.35;;;;;;;19.34;99.32;100744.34;4850289;29;20029;-84
2022/08/05 05:53:14;;;;;;;11.70;7.28;;;;;;;19.33;99.12;100743.50;4850620;29;20041;-86
2022/08/05 05:55:41;;;;;;;10.38;6.70;;;;;;;19.39;99.31;100739.69;4848732;29;20069;-84
2022/08/05 05:58:10;;;;;;;8.13;5.60;;;;;;;19.49;98.85;100738.34;4871309;29;20381;-84
2022/08/05 06:00:37;;;;;;;7.75;5.88;;;;;;;19.60;97.77;100744.97;4855907;29;20053;-85
2022/08/05 06:03:04;;;;;;;9.00;5.35;;;;;;;19.65;97.11;100748.28;4869133;29;20113;-87
2022/08/05 06:05:31;;;;;;;9.30;6.03;;;;;;;19.60;96.06;100752.94;4857001;29;20048;-85
2022/08/05 06:07:58;;;;;;;10.10;5.35;;;;;;;19.51;96.41;100762.19;4876581;29;20382;-86
2022/08/05 06:10:25;;;;;;;9.57;5.38;;;;;;;19.44;96.03;100780.19;4889770;29;20060;-85
2022/08/05 06:12:52;;;;;;;9.45;4.93;;;;;;;19.32;96.56;100801.94;4862055;29;20045;-84
2022/08/05 06:15:19;;;;;;;12.02;5.20;;;;;;;19.21;96.22;100823.63;4860816;29;20061;-85
2022/08/05 06:17:49;;;;;;;9.00;4.80;;;;;;;19.05;97.44;100849.09;4862524;29;20144;-85
2022/08/05 06:20:15;;;;;;;7.97;5.07;;;;;;;18.85;98.41;100880.78;4866625;29;20052;-85
2022/08/05 06:22:42;;;;;;;7.97;5.80;;;;;;;18.59;100.00;100895.06;4864276;29;20044;-86
2022/08/05 06:25:10;;;;;;;9.88;6.30;;;;;;;18.32;100.00;100838.69;4856775;29;20096;-86
2022/08/05 06:27:36;;;;;;;10.70;6.13;;;;;;;18.12;100.00;100808.50;4855886;29;20080;-87
2022/08/05 06:30:05;;;;;;;10.75;6.72;;;;;;;17.85;100.00;100784.75;4865930;29;20053;-88
2022/08/05 06:32:34;;;;;;;11.30;6.32;;;;;;;17.62;100.00;100782.94;4867462;29;20071;-88
2022/08/05 06:35:01;;;;;;;15.55;6.22;;;;;;;17.48;100.00;100795.78;4865393;29;20116;-86
2022/08/05 06:37:28;;;;;;;9.88;5.97;;;;;;;17.39;100.00;100786.44;4899320;29;20109;-85
2022/08/05 06:39:55;;;;;;;14.13;8.98;;;;;;;17.36;100.00;100778.56;4883587;29;20426;-86
2022/08/05 06:42:24;;;;;;;12.70;6.90;;;;;;;17.33;100.00;100776.91;4866892;29;20079;-86
2022/08/05 06:44:51;;;;;;;9.13;7.65;;;;;;;17.23;100.00;100756.97;4880533;29;20052;-87
2022/08/05 06:47:18;;;;;;;14.32;7.32;;;;;;;17.19;100.00;100748.31;4879719;29;20124;-85
2022/08/05 06:49:45;;;;;;;15.27;9.10;;;;;;;17.18;100.00;100743.91;4882460;29;20056;-86
2022/08/05 06:52:11;;;;;;;14.13;8.00;;;;;;;17.20;100.00;100744.72;4881989;29;20127;-85
2022/08/05 06:54:38;;;;;;;9.88;7.32;;;;;;;17.22;100.00;100730.56;4866329;29;20128;-84
2022/08/05 06:57:05;;;;;;;13.23;7.53;;;;;;;17.25;100.00;100730.47;4865507;29;20049;-84
2022/08/05 06:59:34;;;;;;;13.00;7.25;;;;;;;17.24;100.00;100726.97;4863262;29;20053;-85
2022/08/05 07:02:04;;;;;;;11.07;7.78;;;;;;;17.24;100.00;100720.81;4901507;29;20048;-85
2022/08/05 07:04:30;;;;;;;14.73;7.38;;;;;;;17.23;100.00;100721.72;4881754;29;20049;-85
2022/08/05 07:06:57;;;;;;;9.48;7.43;;;;;;;17.21;100.00;100716.50;4883194;29;20052;-87
2022/08/05 07:09:24;;;;;;;12.18;7.90;;;;;;;17.23;100.00;100727.03;4856659;29;20080;-84
2022/08/05 07:11:57;;;;;;;12.45;7.75;;;;;;;17.32;100.00;100740.75;4891570;29;20139;-84
2022/08/05 07:17:08;;;;;;;10.10;6.97;;;;;;;17.37;100.00;100761.78;4892830;29;20048;-85
2022/08/05 07:19:35;;;;;;;7.90;6.90;;;;;;;17.39;100.00;100770.53;4874369;29;21078;-85
2022/08/05 07:22:05;;;;;;;12.63;7.90;;;;;;;17.41;100.00;100773.13;4872570;29;20079;-85
2022/08/05 07:24:33;;;;;;;11.50;6.95;;;;;;;17.53;100.00;100772.69;4880770;29;20144;-84
2022/08/05 07:27:02;;;;;;;8.95;7.47;;;;;;;17.63;100.00;100770.56;4876123;29;20062;-83
2022/08/05 07:29:30;;;;;;;11.15;7.10;;;;;;;17.65;100.00;100772.25;4877808;29;20040;-83
2022/08/05 07:31:57;;;;;;;11.15;7.07;;;;;;;17.72;100.00;100780.81;4877769;29;20139;-82
2022/08/05 07:34:24;;;;;;;11.30;7.60;;;;;;;17.79;100.00;100773.50;4875151;29;20040;-87
2022/08/05 07:36:53;;;;;;;9.07;7.50;;;;;;;17.85;100.00;100784.75;4891693;29;20059;-87
2022/08/05 07:39:20;;;;;;;11.05;7.65;;;;;;;17.94;100.00;100774.75;4905091;29;20056;-87
2022/08/05 07:41:51;;;;;;;13.90;7.72;;;;;;;18.04;100.00;100767.31;4868625;29;20056;-87
2022/08/05 07:44:28;;;;;;;13.57;7.18;;;;;;;18.07;100.00;100764.53;4902286;29;20143;-88
2022/08/05 07:46:55;;;;;;;12.25;7.43;;;;;;;18.16;100.00;100780.97;4902507;29;20052;-86
2022/08/05 07:49:21;;;;;;;10.55;6.82;;;;;;;18.21;100.00;100779.91;4868971;29;20079;-88
2022/08/05 07:51:49;;;;;;;12.55;8.00;;;;;;;18.19;100.00;100777.34;4864390;29;20048;-87
2022/08/05 07:54:25;;;;;;;8.38;6.88;;;;;;;18.09;100.00;100782.09;4850934;29;20075;-88
2022/08/05 07:56:52;;;;;;;13.68;6.13;;;;;;;18.06;100.00;100784.88;4868447;29;20051;-88
2022/08/05 07:59:29;;;;;;;10.43;5.90;;;;;;;18.01;100.00;100769.16;4880866;29;20052;-87
2022/08/05 08:01:56;;;;;;;12.57;6.00;;;;;;;18.09;100.00;100758.28;4885678;29;20127;-87
2022/08/05 08:04:25;;;;;;;12.43;6.82;;;;;;;18.22;100.00;100748.06;4897952;29;20048;-87
2022/08/05 08:06:59;;;;;;;11.30;6.18;;;;;;;18.30;100.00;100729.22;4884621;29;20059;-86
2022/08/05 08:09:27;;;;;;;7.05;5.20;;;;;;;18.45;100.00;100727.75;4872062;29;20151;-87
2022/08/05 08:11:54;;;;;;;6.07;5.47;;;;;;;18.68;100.00;100745.34;4870694;29;20052;-87
2022/08/05 08:14:21;;;;;;;8.35;5.03;;;;;;;18.93;100.00;100731.06;4873463;29;20053;-87
2022/08/05 08:16:53;;;;;;;6.25;5.40;;;;;;;19.13;100.00;100731.09;4871685;29;20109;-87
2022/08/05 08:19:20;;;;;;;6.00;5.28;;;;;;;19.32;100.00;100735.56;4871243;29;20036;-87
2022/08/05 08:21:47;;;;;;;7.50;5.85;;;;;;;19.37;100.00;100741.53;4882215;29;20047;-86
2022/08/05 08:24:14;;;;;;;7.45;5.55;;;;;;;19.36;100.00;100746.94;4881376;29;20052;-87
2022/08/05 08:26:43;;;;;;;5.85;5.15;;;;;;;19.27;100.00;100757.03;4882011;29;20040;-87
2022/08/05 08:29:10;;;;;;;6.38;5.05;;;;;;;19.21;100.00;100756.44;4883887;29;20056;-86
2022/08/05 08:31:37;;;;;;;5.93;5.20;;;;;;;19.16;100.00;100756.63;4891174;29;20044;-87
2022/08/05 08:34:06;;;;;;;7.47;5.47;;;;;;;19.18;100.00;100752.97;4887837;29;20457;-88
2022/08/05 08:36:33;;;;;;;5.40;5.00;;;;;;;19.27;100.00;100759.69;4873683;29;20059;-87
2022/08/05 08:39:00;;;;;;;7.32;5.95;;;;;;;19.21;100.00;100786.47;4881465;29;20049;-87
2022/08/05 08:41:33;;;;;;;7.50;5.53;;;;;;;19.28;100.00;100780.00;4882072;29;20080;-87
2022/08/05 08:44:05;;;;;;;5.75;5.10;;;;;;;19.39;100.00;100789.28;4890109;29;20076;-87
2022/08/05 08:46:35;;;;;;;6.68;5.70;;;;;;;19.47;100.00;100789.78;4872028;29;20048;-87
2022/08/05 08:49:04;;;;;;;6.13;5.53;;;;;;;19.55;100.00;100778.84;4873683;29;20062;-87
2022/08/05 08:51:35;;;;;;;6.97;4.88;;;;;;;19.63;100.00;100776.69;4869693;29;20052;-87
2022/08/05 08:54:04;;;;;;;8.25;6.50;;;;;;;19.84;100.00;100782.84;4867776;29;20124;-87
2022/08/05 08:56:32;;;;;;;5.93;5.32;;;;;;;20.07;99.83;100802.22;4899044;29;20049;-87
2022/08/05 08:59:01;;;;;;;7.40;5.03;;;;;;;20.24;97.29;100809.38;4888126;29;20056;-87
2022/08/05 09:01:29;;;;;;;5.70;4.75;;;;;;;20.27;96.30;100815.44;4888961;29;20037;-87
2022/08/05 09:06:53;;;;;;;9.80;4.90;;;;;;;20.29;95.55;100799.41;4895706;29;20052;-87
2022/08/05 09:09:28;;;;;;;5.00;4.57;;;;;;;20.22;94.95;100816.56;4892001;29;20540;-86
2022/08/05 09:12:16;;;;;;;6.88;4.25;;;;;;;20.13;95.14;100823.19;4899797;29;20041;-86
2022/08/05 09:14:48;;;;;;;5.32;4.75;;;;;;;19.99;95.54;100826.47;4879726;29;20079;-87
2022/08/05 09:17:16;;;;;;;4.72;3.70;;;;;;;19.94;96.38;100834.63;4889940;29;20048;-87
2022/08/05 09:19:43;;;;;;;9.65;5.07;;;;;;;19.89;95.65;100836.63;4872397;29;20129;-87
2022/08/05 09:22:13;;;;;;;4.88;4.10;;;;;;;19.78;97.15;100836.25;4898812;29;20088;-87
2022/08/05 09:24:41;;;;;;;4.38;3.97;;;;;;;19.73;97.36;100838.25;4872544;29;20060;-87
2022/08/05 09:27:09;;;;;;;6.30;4.40;;;;;;;19.70;98.01;100827.75;4871630;29;20085;-86
2022/08/05 09:29:44;;;;;;;5.18;4.65;;;;;;;19.67;98.54;100826.06;4883122;29;20053;-86
2022/08/05 09:32:12;;;;;;;6.55;4.60;;;;;;;19.67;97.79;100834.94;4886463;29;20037;-87
2022/08/05 09:34:57;;;;;;;3.67;3.30;;;;;;;19.62;96.95;100842.22;4865430;29;20052;-87
2022/08/05 09:37:27;;;;;;;7.18;4.28;;;;;;;19.51;96.59;100844.47;4896553;29;20056;-88
2022/08/05 09:39:54;;;;;;;4.20;3.83;;;;;;;19.44;96.58;100846.53;4867230;29;20052;-87
2022/08/05 09:42:24;;;;;;;3.47;3.10;;;;;;;19.37;96.62;100858.34;4883312;29;20048;-87
2022/08/05 09:44:53;;;;;;;4.32;3.92;;;;;;;19.36;96.35;100869.91;4856853;29;20113;-87
2022/08/05 09:47:27;;;;;;;3.15;2.47;;;;;;;19.31;95.16;100866.59;4862107;29;20044;-85
2022/08/05 09:49:57;;;;;;;2.95;2.72;;;;;;;19.34;95.30;100861.13;4859114;29;20068;-88
2022/08/05 09:52:32;;;;;;;3.78;3.03;;;;;;;19.39;94.59;100866.25;4880501;29;20051;-87
2022/08/05 09:55:07;;;;;;;6.07;3.15;;;;;;;19.45;94.25;100858.00;4859465;29;20056;-86
2022/08/05 09:57:44;;;;;;;3.40;2.60;;;;;;;19.55;94.43;100848.72;4883522;29;20428;-87
2022/08/05 10:00:17;;;;;;;3.72;2.50;;;;;;;19.75;93.57;100850.53;4873412;29;20449;-87
2022/08/05 10:02:52;;;;;;;3.90;2.00;;;;;;;19.90;89.67;100856.97;4867914;29;20055;-86
2022/08/05 10:05:31;;;;;;;3.45;2.92;;;;;;;19.99;86.62;100858.34;4861229;29;20061;-87
2022/08/05 10:08:05;;;;;;;2.70;1.90;;;;;;;20.02;84.64;100866.19;4865359;29;20056;-86
2022/08/05 10:10:47;;;;;;;1.83;1.67;;;;;;;20.04;82.20;100863.44;4856206;29;20064;-87
2022/08/05 10:13:32;;;;;;;5.32;1.60;;;;;;;20.00;82.35;100863.59;4865325;29;21485;-87
2022/08/05 10:15:59;;;;;;;2.03;1.55;;;;;;;20.03;81.71;100865.25;4865352;29;20075;-87
2022/08/05 10:18:27;;;;;;;2.55;1.50;;;;;;;19.98;81.67;100875.22;4877058;29;20049;-86
2022/08/05 10:20:57;;;;;;;3.40;1.73;;;;;;;19.95;81.99;100870.06;4863328;29;20663;-85
2022/08/05 10:23:27;;;;;;;3.65;2.05;;;;;;;19.89;81.35;100860.56;4882676;29;20044;-88
2022/08/05 10:25:57;;;;;;;3.05;1.13;;;;;;;19.84;80.77;100862.53;4898424;29;20068;-86
2022/08/05 10:28:32;;;;;;;2.53;1.95;;;;;;;19.85;79.72;100858.97;4890770;29;20056;-87
2022/08/05 10:31:02;;;;;;;1.55;1.35;;;;;;;19.82;79.52;100857.31;4893872;29;20048;-87
2022/08/05 10:33:34;;;;;;;1.80;1.70;;;;;;;19.76;78.13;100910.66;4869005;29;20046;-88
2022/08/05 10:36:05;;;;;;;2.08;1.98;;;;;;;19.51;78.60;100977.25;4869247;29;20048;-87
2022/08/05 10:38:38;;;;;;;4.18;1.92;;;;;;;19.26;80.88;100956.16;4889147;29;20040;-88
2022/08/05 10:42:00;;;;;;;7.22;2.67;;;;;;;19.01;87.98;100922.66;4887062;29;20048;-86
2022/08/05 10:44:39;;;;;;;4.07;2.85;;;;;;;18.49;93.79;100957.31;4888865;29;20048;-88
2022/08/05 10:47:43;;;;;;;3.85;2.67;;;;;;;18.29;96.80;100935.06;4895552;29;20035;-86
2022/08/05 10:50:12;;;;;;;8.38;4.43;;;;;;;18.38;98.25;100943.56;4898233;29;20048;-88
2022/08/05 10:52:46;;;;;;;4.38;3.60;;;;;;;18.40;98.41;100942.59;4880748;29;20048;-88
2022/08/05 10:55:17;;;;;;;4.78;3.92;;;;;;;18.46;98.82;100949.44;4886668;29;20159;-88
2022/08/05 10:57:48;;;;;;;3.92;3.10;;;;;;;18.60;98.35;100954.25;4890832;29;20057;-88
2022/08/05 11:00:20;;;;;;;4.18;3.80;;;;;;;18.74;98.24;100948.44;4885691;29;20052;-89
2022/08/05 11:03:06;;;;;;;7.72;4.55;;;;;;;18.83;97.06;100948.91;4888009;29;20048;-89
2022/08/05 11:05:34;;;;;;;5.72;3.95;;;;;;;18.85;97.18;100949.75;4876842;29;20098;-84
2022/08/05 11:08:07;;;;;;;6.90;4.03;;;;;;;18.89;97.16;100952.25;4875222;29;20056;-84
2022/08/05 11:10:36;;;;;;;6.53;4.03;;;;;;;18.94;97.35;100955.63;4858319;29;20051;-85
2022/08/05 11:13:06;;;;;;;5.72;3.65;;;;;;;18.99;97.13;100948.34;4887461;29;20341;-84
2022/08/05 11:15:38;;;;;;;6.22;3.13;;;;;;;19.03;96.26;100962.38;4876374;29;20056;-85
2022/08/05 11:18:14;;;;;;;4.13;3.80;;;;;;;19.03;96.91;100968.53;4883940;29;20144;-85
2022/08/05 11:20:54;;;;;;;4.97;3.50;;;;;;;19.10;96.79;100955.88;4866507;29;20146;-84
2022/08/05 11:23:37;;;;;;;4.20;3.13;;;;;;;19.24;96.16;100952.69;4853020;29;20131;-84
2022/08/05 11:26:06;;;;;;;4.57;3.38;;;;;;;19.46;94.88;100952.66;4854645;29;20540;-84
2022/08/05 11:28:32;;;;;;;3.42;3.13;;;;;;;19.70;92.95;100953.44;4862821;29;20131;-84
2022/08/05 11:31:00;;;;;;;4.28;3.60;;;;;;;19.98;91.98;100955.78;4887406;29;20060;-85
2022/08/05 11:33:37;;;;;;;5.13;2.67;;;;;;;20.23;90.64;100960.03;4883190;29;20045;-87
2022/08/05 11:36:07;;;;;;;3.78;2.85;;;;;;;20.36;89.19;100963.00;4873533;29;20063;-84